Denison, Iowa
Current Conditions -  °F | °C
As of 8:15 AM on Saturday 22 Nov 2014 (Local Time) from KDNS Reporting Station
Haze Haze  
Wind Chill: 29°   Ceiling: 300
Heat Index: 37°   Visibility: 0.5mi
Dew Point: 37°   Wind: 13mph
Humidity: 100%   Direction: 200°SSW
Pressure: 29.83"   Gusts: NA
Location:  42.01°N, 95.35°W
Report Text: KDNS 221415Z AUTO 20011KT 1/2SM BR OVC003 03/03 A2983 RMK AO2
Loading
Personal Weather Stations






























Interactive Weather Map New forecast layout! Learn more

10-Day Weather Forecast

Advertisements
Track Severe Weather on mobile